createdAt,value
2022-11-23T00:00:49.230Z,15.57
2022-11-23T00:02:55.250Z,15.90
2022-11-23T00:04:57.437Z,14.53
2022-11-23T00:06:59.658Z,18.27
2022-11-23T00:09:02.180Z,16.70
2022-11-23T00:11:04.395Z,15.47
2022-11-23T00:13:06.677Z,15.80
2022-11-23T00:15:09.240Z,16.30
2022-11-23T00:17:11.331Z,15.40
2022-11-23T00:19:13.518Z,15.00
2022-11-23T00:21:17.121Z,14.37
2022-11-23T00:23:19.345Z,14.00
2022-11-23T00:25:21.490Z,14.70
2022-11-23T00:27:23.703Z,13.77
2022-11-23T00:29:25.881Z,13.93
2022-11-23T00:31:28.183Z,14.90
2022-11-23T00:33:30.361Z,14.27
2022-11-23T00:35:32.700Z,14.40
2022-11-23T00:37:36.686Z,14.50
2022-11-23T00:39:39.896Z,13.80
2022-11-23T00:41:42.001Z,13.53
2022-11-23T00:43:44.281Z,13.67
2022-11-23T00:45:46.486Z,14.53
2022-11-23T00:47:48.659Z,13.73
2022-11-23T00:49:50.838Z,13.33
2022-11-23T00:51:53.225Z,14.80
2022-11-23T00:53:55.551Z,14.87
2022-11-23T00:55:59.659Z,13.27
2022-11-23T00:58:01.749Z,13.70
2022-11-23T01:00:05.721Z,13.87
2022-11-23T01:02:07.996Z,13.33
2022-11-23T01:04:10.209Z,15.17
2022-11-23T01:06:18.027Z,15.23
2022-11-23T01:08:20.388Z,13.90
2022-11-23T01:10:22.521Z,12.83
2022-11-23T01:12:24.635Z,14.77
2022-11-23T01:14:26.811Z,15.43
2022-11-23T01:16:31.898Z,14.90
2022-11-23T01:18:34.787Z,15.10
2022-11-23T01:20:37.100Z,14.40
2022-11-23T01:22:39.246Z,14.37
2022-11-23T01:24:41.588Z,14.53
2022-11-23T01:26:44.893Z,14.80
2022-11-23T01:28:47.323Z,14.60
2022-11-23T01:30:49.498Z,15.40
2022-11-23T01:32:51.612Z,14.13
2022-11-23T01:34:53.730Z,15.80
2022-11-23T01:36:55.898Z,14.33
2022-11-23T01:38:59.256Z,14.00
2022-11-23T01:41:01.435Z,14.03
2022-11-23T01:43:07.357Z,13.80
2022-11-23T01:45:27.980Z,13.63
2022-11-23T01:47:30.189Z,14.37
2022-11-23T01:49:45.471Z,13.80
2022-11-23T01:51:51.337Z,15.03
2022-11-23T01:53:57.857Z,14.67
2022-11-23T01:56:02.569Z,14.03
2022-11-23T01:58:06.354Z,13.67
2022-11-23T02:00:09.413Z,13.53
2022-11-23T02:02:20.417Z,15.50
2022-11-23T02:04:30.353Z,14.90
2022-11-23T02:06:33.170Z,14.40
2022-11-23T02:08:38.126Z,13.97
2022-11-23T02:10:40.339Z,14.40
2022-11-23T02:12:45.489Z,13.90
2022-11-23T02:14:47.818Z,14.07
2022-11-23T02:16:50.108Z,13.63
2022-11-23T02:18:52.675Z,13.10
2022-11-23T02:20:58.330Z,14.83
2022-11-23T02:23:19.140Z,12.80
2022-11-23T02:25:33.250Z,14.03
2022-11-23T02:27:35.366Z,13.10
2022-11-23T02:29:37.554Z,12.83
2022-11-23T02:31:39.724Z,12.80
2022-11-23T02:33:41.840Z,12.20
2022-11-23T02:35:49.563Z,12.50
2022-11-23T02:37:52.401Z,13.00
2022-11-23T02:39:54.965Z,13.77
2022-11-23T02:41:57.930Z,13.50
2022-11-23T02:44:00.568Z,10.80
2022-11-23T02:46:04.327Z,13.90
2022-11-23T02:48:06.716Z,12.57
2022-11-23T02:50:09.044Z,13.17
2022-11-23T02:52:11.208Z,13.33
2022-11-23T02:54:13.340Z,11.87
2022-11-23T02:56:15.619Z,12.07
2022-11-23T02:58:17.781Z,11.73
2022-11-23T03:00:20.025Z,12.47
2022-11-23T03:02:23.124Z,12.10
2022-11-23T03:04:27.823Z,12.03
2022-11-23T03:06:30.258Z,12.87
2022-11-23T03:08:33.163Z,11.20
2022-11-23T03:10:35.512Z,14.17
2022-11-23T03:12:37.696Z,12.47
2022-11-23T03:14:40.394Z,11.90
2022-11-23T03:16:42.739Z,12.17
2022-11-23T03:18:45.083Z,12.37
2022-11-23T03:20:47.314Z,12.20
2022-11-23T03:22:51.513Z,12.67
2022-11-23T03:24:56.418Z,11.67
2022-11-23T03:26:58.686Z,12.30
2022-11-23T03:29:00.841Z,12.63
2022-11-23T03:31:04.965Z,14.13
2022-11-23T03:33:07.418Z,12.23
2022-11-23T03:35:10.931Z,11.90
2022-11-23T03:37:25.908Z,12.17
2022-11-23T03:39:28.612Z,12.03
2022-11-23T03:42:06.004Z,12.47
2022-11-23T03:44:10.068Z,12.13
2022-11-23T03:46:12.288Z,12.23
2022-11-23T03:48:15.010Z,11.30
2022-11-23T03:50:17.386Z,12.27
2022-11-23T03:52:19.523Z,12.83
2022-11-23T03:54:22.847Z,12.50
2022-11-23T03:56:25.118Z,14.17
2022-11-23T03:58:27.243Z,13.30
2022-11-23T04:00:30.773Z,11.20
2022-11-23T04:02:33.623Z,11.50
2022-11-23T04:04:42.666Z,11.93
2022-11-23T04:06:58.973Z,11.60
2022-11-23T04:09:15.732Z,11.30
2022-11-23T04:11:34.630Z,11.30
2022-11-23T04:13:36.859Z,11.00
2022-11-23T04:15:39.075Z,11.10
2022-11-23T04:17:41.242Z,11.23
2022-11-23T04:19:43.430Z,10.73
2022-11-23T04:21:45.770Z,11.47
2022-11-23T04:23:49.054Z,11.30
2022-11-23T04:25:51.745Z,11.37
2022-11-23T04:27:55.047Z,10.90
2022-11-23T04:29:58.176Z,11.90
2022-11-23T04:32:00.337Z,11.70
2022-11-23T04:34:02.590Z,11.10
2022-11-23T04:36:05.181Z,13.20
2022-11-23T04:38:07.571Z,11.43
2022-11-23T04:40:10.385Z,13.73
2022-11-23T04:42:16.922Z,12.63
2022-11-23T04:44:24.585Z,12.17
2022-11-23T04:46:33.279Z,12.13
2022-11-23T04:48:35.637Z,12.50
2022-11-23T04:50:40.652Z,10.70
2022-11-23T04:52:44.935Z,12.80
2022-11-23T04:54:52.565Z,11.33
2022-11-23T04:56:55.083Z,12.37
2022-11-23T04:58:57.296Z,13.73
2022-11-23T05:00:59.739Z,12.53
2022-11-23T05:03:02.999Z,11.40
2022-11-23T05:05:08.488Z,13.37
2022-11-23T05:07:10.736Z,12.73
2022-11-23T05:09:15.162Z,13.13
2022-11-23T05:11:27.170Z,12.33
2022-11-23T05:13:32.018Z,12.43
2022-11-23T05:15:36.464Z,11.90
2022-11-23T05:17:39.042Z,15.17
2022-11-23T05:19:45.734Z,13.67
2022-11-23T05:21:48.749Z,13.70
2022-11-23T05:23:51.581Z,13.47
2022-11-23T05:25:54.820Z,12.50
2022-11-23T05:27:57.054Z,13.93
2022-11-23T05:29:59.347Z,13.50
2022-11-23T05:32:01.534Z,13.60
2022-11-23T05:34:04.600Z,14.30
2022-11-23T05:36:14.514Z,14.20
2022-11-23T05:38:17.820Z,15.07
2022-11-23T05:40:19.975Z,15.43
2022-11-23T05:42:23.444Z,15.10
2022-11-23T05:44:27.551Z,15.53
2022-11-23T05:46:29.765Z,13.43
2022-11-23T05:48:31.920Z,14.07
2022-11-23T05:50:34.103Z,13.00
2022-11-23T05:52:56.846Z,13.77
2022-11-23T05:54:59.034Z,13.47
2022-11-23T05:57:01.234Z,13.40
2022-11-23T05:59:30.123Z,14.10
2022-11-23T06:01:36.609Z,13.93
2022-11-23T06:03:39.755Z,14.13
2022-11-23T06:05:41.911Z,14.07
2022-11-23T06:07:44.336Z,14.93
2022-11-23T06:09:48.479Z,14.70
2022-11-23T06:11:50.886Z,13.50
2022-11-23T06:13:55.375Z,15.17
2022-11-23T06:15:57.636Z,14.37
2022-11-23T06:18:07.154Z,13.70
2022-11-23T06:20:18.196Z,14.90
2022-11-23T06:22:27.897Z,15.43
2022-11-23T06:24:35.398Z,14.10
2022-11-23T06:26:55.921Z,13.50
2022-11-23T06:28:58.412Z,14.10
2022-11-23T06:31:05.507Z,13.63
2022-11-23T06:33:08.231Z,15.30
2022-11-23T06:35:17.291Z,13.60
2022-11-23T06:37:20.178Z,14.60
2022-11-23T06:39:27.309Z,15.73
2022-11-23T06:41:32.391Z,14.63
2022-11-23T06:43:36.585Z,15.17
2022-11-23T06:45:38.823Z,14.77
2022-11-23T06:47:44.545Z,13.67
2022-11-23T06:49:46.791Z,14.60
2022-11-23T06:51:56.421Z,14.03
2022-11-23T06:53:58.575Z,14.63
2022-11-23T06:56:01.929Z,15.03
2022-11-23T06:58:06.438Z,14.53
2022-11-23T07:00:11.252Z,14.93
2022-11-23T07:02:14.744Z,13.90
2022-11-23T07:04:17.379Z,13.90
2022-11-23T07:06:24.188Z,16.17
2022-11-23T07:08:29.198Z,15.57
2022-11-23T07:10:33.485Z,14.90
2022-11-23T07:12:36.703Z,16.30
2022-11-23T07:14:39.321Z,14.77
2022-11-23T07:16:42.478Z,14.60
2022-11-23T07:18:44.841Z,15.23
2022-11-23T07:20:47.024Z,16.50
2022-11-23T07:22:49.281Z,16.37
2022-11-23T07:24:51.517Z,16.13
2022-11-23T07:26:53.735Z,15.63
2022-11-23T07:28:56.007Z,15.33
2022-11-23T07:30:58.226Z,16.40
2022-11-23T07:33:02.557Z,14.50
2022-11-23T07:35:05.882Z,15.33
2022-11-23T07:37:11.451Z,14.47
2022-11-23T07:39:14.498Z,16.53
2022-11-23T07:41:18.070Z,13.80
2022-11-23T07:43:30.098Z,16.00
2022-11-23T07:45:32.864Z,14.93
2022-11-23T07:47:35.760Z,15.80
2022-11-23T07:49:37.936Z,14.87
2022-11-23T07:51:40.079Z,14.90
2022-11-23T07:53:42.452Z,13.47
2022-11-23T07:55:44.580Z,13.83
2022-11-23T07:57:46.785Z,14.30
2022-11-23T07:59:48.985Z,12.93
2022-11-23T08:01:55.645Z,13.00
2022-11-23T08:04:00.368Z,13.60
2022-11-23T08:06:02.605Z,14.63
2022-11-23T08:08:05.001Z,13.23
2022-11-23T08:10:07.348Z,14.17
2022-11-23T08:12:09.532Z,13.33
2022-11-23T08:14:11.885Z,12.60
2022-11-23T08:16:14.011Z,14.90
2022-11-23T08:18:16.128Z,13.23
2022-11-23T08:20:18.252Z,13.07
2022-11-23T08:22:20.466Z,13.20
2022-11-23T08:24:22.649Z,12.63
2022-11-23T08:26:24.782Z,11.97
2022-11-23T08:28:26.885Z,12.00
2022-11-23T08:30:30.507Z,11.10
2022-11-23T08:32:32.676Z,11.60
2022-11-23T08:34:35.172Z,11.73
2022-11-23T08:36:37.683Z,11.40
2022-11-23T08:38:39.809Z,12.00
2022-11-23T08:40:42.105Z,11.53
2022-11-23T08:42:44.267Z,10.83
2022-11-23T08:44:46.414Z,11.40
2022-11-23T08:46:48.620Z,11.63
2022-11-23T08:48:50.866Z,9.77
2022-11-23T08:50:53.955Z,11.10
2022-11-23T08:52:59.562Z,9.50
2022-11-23T08:55:01.689Z,9.27
2022-11-23T08:57:03.891Z,9.30
2022-11-23T08:59:06.044Z,7.90
2022-11-23T09:01:12.776Z,8.67
2022-11-23T09:03:14.986Z,7.60
2022-11-23T09:05:17.124Z,7.20
2022-11-23T09:07:19.396Z,6.70
2022-11-23T09:09:21.584Z,7.70
2022-11-23T09:11:24.124Z,8.23
2022-11-23T09:13:26.262Z,6.27
2022-11-23T09:15:28.528Z,5.67
2022-11-23T09:17:32.542Z,6.23
2022-11-23T09:19:34.669Z,6.20
2022-11-23T09:21:39.173Z,6.20
2022-11-23T09:23:41.327Z,6.47
2022-11-23T09:25:47.726Z,6.80
2022-11-23T09:27:56.178Z,6.57
2022-11-23T09:29:58.291Z,7.20
2022-11-23T09:32:02.647Z,6.87
2022-11-23T09:34:05.258Z,7.37
2022-11-23T09:36:07.705Z,6.40
2022-11-23T09:38:09.993Z,6.97
2022-11-23T09:40:17.371Z,7.83
2022-11-23T09:42:51.908Z,6.60
2022-11-23T09:45:15.282Z,7.13
2022-11-23T09:47:49.814Z,6.77
2022-11-23T09:50:03.263Z,6.97
2022-11-23T09:52:14.161Z,6.60
2022-11-23T09:54:26.859Z,7.63
2022-11-23T09:56:33.459Z,7.30
2022-11-23T09:58:39.624Z,6.97
2022-11-23T10:00:48.205Z,6.97
2022-11-23T10:02:50.379Z,6.87
2022-11-23T10:04:53.795Z,7.53
2022-11-23T10:07:03.274Z,7.20
2022-11-23T10:09:17.583Z,7.40
2022-11-23T10:11:45.072Z,7.57
2022-11-23T10:14:08.451Z,7.67
2022-11-23T10:16:17.556Z,7.50
2022-11-23T10:18:27.917Z,6.80
2022-11-23T10:20:51.778Z,6.50
2022-11-23T10:23:01.590Z,6.70
2022-11-23T10:25:14.953Z,6.90
2022-11-23T10:27:19.661Z,7.17
2022-11-23T10:29:31.498Z,7.30
2022-11-23T10:31:33.459Z,6.97
2022-11-23T10:33:47.947Z,7.63
2022-11-23T10:35:50.136Z,7.80
2022-11-23T10:37:53.915Z,8.33
2022-11-23T10:39:56.022Z,7.83
2022-11-23T10:42:02.167Z,7.43
2022-11-23T10:44:05.602Z,6.90
2022-11-23T10:46:28.007Z,6.27
2022-11-23T10:48:35.627Z,7.53
2022-11-23T10:50:40.881Z,8.27
2022-11-23T10:52:50.931Z,8.33
2022-11-23T10:54:54.398Z,7.13
2022-11-23T10:56:57.123Z,6.17
2022-11-23T10:58:59.333Z,7.03
2022-11-23T11:01:06.528Z,6.57
2022-11-23T11:03:23.348Z,5.80
2022-11-23T11:06:07.081Z,5.87
2022-11-23T11:07:55.205Z,5.23
2022-11-23T11:09:59.544Z,5.63
2022-11-23T11:12:02.078Z,5.70
2022-11-23T11:14:23.402Z,4.90
2022-11-23T11:16:33.824Z,4.87
2022-11-23T11:18:37.708Z,5.17
2022-11-23T11:20:40.032Z,4.60
2022-11-23T11:22:47.464Z,5.33
2022-11-23T11:24:49.974Z,5.00
2022-11-23T11:27:00.041Z,4.20
2022-11-23T11:29:04.380Z,4.13
2022-11-23T11:31:30.462Z,4.80
2022-11-23T11:33:38.399Z,3.80
2022-11-23T11:35:42.697Z,4.37
2022-11-23T11:37:46.742Z,3.90
2022-11-23T11:39:52.499Z,3.40
2022-11-23T11:41:54.862Z,4.17
2022-11-23T11:44:06.310Z,4.70
2022-11-23T11:46:30.917Z,3.87
2022-11-23T11:48:36.892Z,4.00
2022-11-23T11:50:44.324Z,4.20
2022-11-23T11:52:48.055Z,4.17
2022-11-23T11:55:10.690Z,4.23
2022-11-23T11:57:24.555Z,4.63
2022-11-23T11:59:42.758Z,3.90
2022-11-23T12:01:50.896Z,4.20
2022-11-23T12:04:00.740Z,4.37
2022-11-23T12:06:08.768Z,4.17
2022-11-23T12:08:39.949Z,3.53
2022-11-23T12:10:51.575Z,3.70
2022-11-23T12:12:56.414Z,3.30
2022-11-23T12:14:58.678Z,3.47
2022-11-23T12:17:37.796Z,4.00
2022-11-23T12:20:05.461Z,3.57
2022-11-23T12:22:28.175Z,3.20
2022-11-23T12:24:59.643Z,3.27
2022-11-23T12:27:18.303Z,3.63
2022-11-23T12:29:46.011Z,4.50
2022-11-23T12:31:57.913Z,3.43
2022-11-23T12:34:05.697Z,4.27
2022-11-23T12:36:42.289Z,3.80
2022-11-23T12:38:56.431Z,4.40
2022-11-23T12:41:20.546Z,4.10
2022-11-23T12:43:43.293Z,3.60
2022-11-23T12:46:08.587Z,3.27
2022-11-23T12:48:52.695Z,3.80
2022-11-23T12:51:18.795Z,3.20
2022-11-23T12:53:39.357Z,4.17
2022-11-23T12:56:01.729Z,3.47
2022-11-23T12:58:15.910Z,3.47
2022-11-23T13:00:20.520Z,3.60
2022-11-23T13:03:04.611Z,3.20
2022-11-23T13:05:22.118Z,3.40
2022-11-23T13:08:01.734Z,3.87
2022-11-23T13:10:13.083Z,3.50
2022-11-23T13:12:21.399Z,3.73
2022-11-23T13:14:49.887Z,3.50
2022-11-23T13:17:07.261Z,3.97
2022-11-23T13:19:16.399Z,3.60
2022-11-23T13:21:39.886Z,3.20
2022-11-23T13:23:44.769Z,3.60
2022-11-23T13:26:14.446Z,3.37
2022-11-23T13:28:32.085Z,3.33
2022-11-23T13:30:59.298Z,3.40
2022-11-23T13:33:10.322Z,3.67
2022-11-23T13:35:21.776Z,3.27
2022-11-23T13:37:24.259Z,3.63
2022-11-23T13:39:45.320Z,3.33
2022-11-23T13:41:58.694Z,4.70
2022-11-23T13:44:18.804Z,3.90
2022-11-23T13:46:23.878Z,4.20
2022-11-23T13:48:56.160Z,3.70
2022-11-23T13:50:51.576Z,4.50
2022-11-23T13:52:53.662Z,3.27
2022-11-23T13:55:23.169Z,4.20
2022-11-23T13:57:25.106Z,3.40
2022-11-23T13:59:31.892Z,3.30
2022-11-23T14:01:59.004Z,2.80
2022-11-23T14:04:20.775Z,3.50
2022-11-23T14:06:32.686Z,4.63
2022-11-23T14:08:35.451Z,4.97
2022-11-23T14:10:37.852Z,4.10
2022-11-23T14:12:50.177Z,4.03
2022-11-23T14:15:08.079Z,3.87
2022-11-23T14:17:47.063Z,4.33
2022-11-23T14:20:28.939Z,3.20
2022-11-23T14:22:42.124Z,3.80
2022-11-23T14:25:19.727Z,3.30
2022-11-23T14:27:47.242Z,2.73
2022-11-23T14:29:53.949Z,2.50
2022-11-23T14:32:27.471Z,3.33
2022-11-23T14:34:51.667Z,3.20
2022-11-23T14:37:01.493Z,3.37
2022-11-23T14:39:40.668Z,3.50
2022-11-23T14:41:42.850Z,3.30
2022-11-23T14:43:45.620Z,3.10
2022-11-23T14:45:47.835Z,3.47
2022-11-23T14:47:49.954Z,3.50
2022-11-23T14:49:52.257Z,2.57
2022-11-23T14:51:54.334Z,3.43
2022-11-23T14:53:59.683Z,3.40
2022-11-23T14:56:01.941Z,4.20
2022-11-23T14:58:05.596Z,3.33
2022-11-23T15:00:25.316Z,3.17
2022-11-23T15:02:33.555Z,3.77
2022-11-23T15:04:40.983Z,4.27
2022-11-23T15:06:46.220Z,4.30
2022-11-23T15:09:07.747Z,3.80
2022-11-23T15:11:13.026Z,3.40
2022-11-23T15:13:21.544Z,3.53
2022-11-23T15:15:26.712Z,3.60
2022-11-23T15:17:28.892Z,3.13
2022-11-23T15:19:30.831Z,3.60
2022-11-23T15:21:32.830Z,3.80
2022-11-23T15:23:37.003Z,3.37
2022-11-23T15:25:38.952Z,3.60
2022-11-23T15:27:44.221Z,3.27
2022-11-23T15:29:54.890Z,3.43
2022-11-23T15:32:22.308Z,3.60
2022-11-23T15:34:19.080Z,3.40
2022-11-23T15:36:27.514Z,4.07
2022-11-23T15:38:29.482Z,3.77
2022-11-23T15:40:35.599Z,4.27
2022-11-23T15:42:37.771Z,4.00
2022-11-23T15:44:39.693Z,3.90
2022-11-23T15:46:42.067Z,5.17
2022-11-23T15:48:48.501Z,5.00
2022-11-23T15:50:59.389Z,3.83
2022-11-23T15:53:01.909Z,4.50
2022-11-23T15:55:09.609Z,4.57
2022-11-23T15:57:26.064Z,4.93
2022-11-23T15:59:41.033Z,5.10
2022-11-23T16:01:43.432Z,4.30
2022-11-23T16:04:02.052Z,4.30
2022-11-23T16:06:13.026Z,4.20
2022-11-23T16:08:24.953Z,5.70
2022-11-23T16:10:30.980Z,4.70
2022-11-23T16:12:35.500Z,5.13
2022-11-23T16:14:37.965Z,5.20
2022-11-23T16:16:45.187Z,5.47
2022-11-23T16:18:52.219Z,5.20
2022-11-23T16:21:00.306Z,5.07
2022-11-23T16:23:02.474Z,5.60
2022-11-23T16:25:25.960Z,5.30
2022-11-23T16:27:27.924Z,5.40
2022-11-23T16:29:34.563Z,5.47
2022-11-23T16:31:38.503Z,5.57
2022-11-23T16:33:40.611Z,6.07
2022-11-23T16:35:42.853Z,5.77
2022-11-23T16:37:45.244Z,5.20
2022-11-23T16:39:47.348Z,5.80
2022-11-23T16:41:49.592Z,5.13
2022-11-23T16:43:54.494Z,5.93
2022-11-23T16:45:56.498Z,5.73
2022-11-23T16:48:00.444Z,5.50
2022-11-23T16:50:03.290Z,6.20
2022-11-23T16:52:05.346Z,6.13
2022-11-23T16:54:13.489Z,6.67
2022-11-23T16:56:24.498Z,6.00
2022-11-23T16:58:30.235Z,6.00
2022-11-23T17:00:33.930Z,6.90
2022-11-23T17:02:36.067Z,9.03
2022-11-23T17:04:38.134Z,11.60
2022-11-23T17:06:42.751Z,13.60
2022-11-23T17:08:46.079Z,14.40
2022-11-23T17:10:48.558Z,13.57
2022-11-23T17:12:52.734Z,10.57
2022-11-23T17:14:54.792Z,11.80
2022-11-23T17:16:56.908Z,12.43
2022-11-23T17:18:58.947Z,11.13
2022-11-23T17:21:00.896Z,11.23
2022-11-23T17:23:02.975Z,11.90
2022-11-23T17:25:10.155Z,9.93
2022-11-23T17:27:25.040Z,11.33
2022-11-23T17:29:27.089Z,13.60
2022-11-23T17:31:29.582Z,13.07
2022-11-23T17:33:31.641Z,12.17
2022-11-23T17:35:36.965Z,15.17
2022-11-23T17:37:40.394Z,12.67
2022-11-23T17:39:42.387Z,13.47
2022-11-23T17:41:44.368Z,15.00
2022-11-23T17:43:46.429Z,16.57
2022-11-23T17:45:48.694Z,14.97
2022-11-23T17:47:50.778Z,14.27
2022-11-23T17:49:53.022Z,16.87
2022-11-23T17:51:55.803Z,13.93
2022-11-23T17:53:57.909Z,15.20
2022-11-23T17:55:59.978Z,15.63
2022-11-23T17:58:02.148Z,16.87
2022-11-23T18:00:05.533Z,17.70
2022-11-23T18:02:13.982Z,15.87
2022-11-23T18:04:15.944Z,16.67
2022-11-23T18:06:24.007Z,17.07
2022-11-23T18:08:25.918Z,15.87
2022-11-23T18:10:27.987Z,18.50
2022-11-23T18:12:30.198Z,15.77
2022-11-23T18:14:32.446Z,17.40
2022-11-23T18:16:34.440Z,15.27
2022-11-23T18:18:36.935Z,17.03
2022-11-23T18:20:38.973Z,15.63
2022-11-23T18:22:41.073Z,16.33
2022-11-23T18:24:43.105Z,15.43
2022-11-23T18:26:45.159Z,15.87
2022-11-23T18:28:48.334Z,17.10
2022-11-23T18:30:50.388Z,15.37
2022-11-23T18:32:52.426Z,14.93
2022-11-23T18:34:54.362Z,14.57
2022-11-23T18:36:56.392Z,13.80
2022-11-23T18:38:58.471Z,14.57
2022-11-23T18:41:00.875Z,14.90
2022-11-23T18:43:02.944Z,14.33
2022-11-23T18:45:05.387Z,14.17
2022-11-23T18:47:07.354Z,13.53
2022-11-23T18:49:09.416Z,13.33
2022-11-23T18:51:13.346Z,12.67
2022-11-23T18:53:15.951Z,13.47
2022-11-23T18:55:18.097Z,13.07
2022-11-23T18:57:20.139Z,14.40
2022-11-23T18:59:56.254Z,13.77
2022-11-23T19:01:44.674Z,11.83
2022-11-23T19:03:48.824Z,14.53
2022-11-23T19:05:51.078Z,12.70
2022-11-23T19:07:53.381Z,13.63
2022-11-23T19:09:55.563Z,12.87
2022-11-23T19:11:57.548Z,11.83
2022-11-23T19:14:01.482Z,11.37
2022-11-23T19:16:11.163Z,11.27
2022-11-23T19:18:13.273Z,10.20
2022-11-23T19:20:18.522Z,9.60
2022-11-23T19:22:20.650Z,11.23
2022-11-23T19:24:22.772Z,10.70
2022-11-23T19:26:25.827Z,11.77
2022-11-23T19:28:28.323Z,11.53
2022-11-23T19:30:30.242Z,11.80
2022-11-23T19:32:33.698Z,13.70
2022-11-23T19:34:35.661Z,14.20
2022-11-23T19:36:37.954Z,13.80
2022-11-23T19:38:40.094Z,13.10
2022-11-23T19:40:42.249Z,13.50
2022-11-23T19:42:44.575Z,13.03
2022-11-23T19:44:46.556Z,12.53
2022-11-23T19:46:48.621Z,11.70
2022-11-23T19:48:50.846Z,11.40
2022-11-23T19:51:02.321Z,12.40
2022-11-23T19:53:12.445Z,12.17
2022-11-23T19:55:15.415Z,12.23
2022-11-23T19:57:17.574Z,13.30
2022-11-23T19:59:19.833Z,13.53
2022-11-23T20:01:23.938Z,12.73
2022-11-23T20:03:26.146Z,11.97
2022-11-23T20:05:28.417Z,10.63
2022-11-23T20:07:31.394Z,11.10
2022-11-23T20:09:33.663Z,11.10
2022-11-23T20:11:36.811Z,11.10
2022-11-23T20:13:39.228Z,10.30
2022-11-23T20:15:43.969Z,11.10
2022-11-23T20:17:48.665Z,11.80
2022-11-23T20:19:50.756Z,10.33
2022-11-23T20:21:53.379Z,10.60
2022-11-23T20:24:01.295Z,11.20
2022-11-23T20:26:06.938Z,11.60
2022-11-23T20:28:12.663Z,11.07
2022-11-23T20:30:15.136Z,12.13
2022-11-23T20:32:17.236Z,12.73
2022-11-23T20:34:22.971Z,12.03
2022-11-23T20:36:29.896Z,12.17
2022-11-23T20:38:36.250Z,12.33
2022-11-23T20:40:38.438Z,13.40
2022-11-23T20:42:40.930Z,12.60
2022-11-23T20:44:43.074Z,12.47
2022-11-23T20:47:02.367Z,14.20
2022-11-23T20:49:05.155Z,12.70
2022-11-23T20:51:10.606Z,13.07
2022-11-23T20:53:13.107Z,12.40
2022-11-23T20:55:23.140Z,13.37
2022-11-23T20:57:25.258Z,13.40
2022-11-23T20:59:27.455Z,12.10
2022-11-23T21:01:29.979Z,12.60
2022-11-23T21:03:33.557Z,12.70
2022-11-23T21:05:36.414Z,13.57
2022-11-23T21:07:38.601Z,12.80
2022-11-23T21:09:40.821Z,12.87
2022-11-23T21:12:01.515Z,11.80
2022-11-23T21:14:12.380Z,11.47
2022-11-23T21:16:17.921Z,10.63
2022-11-23T21:18:20.072Z,11.87
2022-11-23T21:20:22.342Z,10.83
2022-11-23T21:22:24.509Z,11.40
2022-11-23T21:24:27.989Z,12.17
2022-11-23T21:26:30.175Z,11.63
2022-11-23T21:28:33.083Z,11.67
2022-11-23T21:30:35.858Z,11.30
2022-11-23T21:32:38.128Z,11.60
2022-11-23T21:34:40.486Z,11.40
2022-11-23T21:36:42.657Z,11.90
2022-11-23T21:38:45.432Z,11.83
2022-11-23T21:40:47.631Z,11.17
2022-11-23T21:42:51.658Z,12.37
2022-11-23T21:44:53.740Z,12.00
2022-11-23T21:46:56.091Z,11.80
2022-11-23T21:48:59.459Z,11.03
2022-11-23T21:51:11.551Z,11.30
2022-11-23T21:53:13.663Z,12.23
2022-11-23T21:55:15.871Z,12.37
2022-11-23T21:57:17.979Z,12.50
2022-11-23T21:59:20.188Z,15.30
2022-11-23T22:01:24.642Z,15.87
2022-11-23T22:03:26.891Z,14.60
2022-11-23T22:05:29.029Z,12.77
2022-11-23T22:07:33.334Z,11.43
2022-11-23T22:09:35.524Z,11.47
2022-11-23T22:11:41.007Z,10.27
2022-11-23T22:13:44.251Z,10.40
2022-11-23T22:15:46.398Z,11.07
2022-11-23T22:17:49.004Z,10.50
2022-11-23T22:19:51.953Z,10.40
2022-11-23T22:21:54.164Z,10.10
2022-11-23T22:23:56.388Z,10.50
2022-11-23T22:26:06.240Z,10.00
2022-11-23T22:28:08.605Z,10.60
2022-11-23T22:30:11.164Z,10.33
2022-11-23T22:32:13.491Z,11.13
2022-11-23T22:34:15.708Z,10.70
2022-11-23T22:36:23.288Z,10.47
2022-11-23T22:38:25.416Z,10.60
2022-11-23T22:40:32.712Z,10.87
2022-11-23T22:42:34.927Z,10.07
2022-11-23T22:44:37.257Z,11.00
2022-11-23T22:46:40.018Z,9.43
2022-11-23T22:48:44.351Z,10.10
2022-11-23T22:50:56.421Z,10.30
2022-11-23T22:52:58.615Z,10.80
2022-11-23T22:55:00.757Z,11.33
2022-11-23T22:57:02.928Z,9.97
2022-11-23T22:59:05.820Z,12.57
2022-11-23T23:01:15.245Z,12.07
2022-11-23T23:03:17.554Z,14.87
2022-11-23T23:05:19.826Z,12.03
2022-11-23T23:07:22.015Z,12.87
2022-11-23T23:09:24.169Z,11.27
2022-11-23T23:11:28.304Z,13.03
2022-11-23T23:13:30.508Z,12.47
2022-11-23T23:15:32.669Z,11.43
2022-11-23T23:17:35.420Z,12.93
2022-11-23T23:19:37.628Z,11.33
2022-11-23T23:21:39.831Z,12.70
2022-11-23T23:23:46.412Z,12.10
2022-11-23T23:25:48.556Z,11.10
2022-11-23T23:27:50.677Z,11.13
2022-11-23T23:29:52.822Z,12.90
2022-11-23T23:31:54.973Z,11.37
2022-11-23T23:33:59.219Z,11.67
2022-11-23T23:36:09.217Z,12.37
2022-11-23T23:38:11.423Z,13.30
2022-11-23T23:40:13.573Z,12.10
2022-11-23T23:42:16.017Z,14.33
2022-11-23T23:44:19.649Z,12.50
2022-11-23T23:46:22.045Z,12.37
2022-11-23T23:48:25.544Z,12.00
2022-11-23T23:50:27.680Z,12.20
2022-11-23T23:52:29.825Z,12.63
2022-11-23T23:54:32.665Z,12.17
2022-11-23T23:56:35.054Z,12.80
2022-11-23T23:58:37.422Z,13.40
